.
WxDataArchive / Data Records for 2016-02-20
2016-02-19 February 2016 2016-02-21

Data Records for Saturday, 20 February 2016

Time	Temp	Chill	HIndex	Humid	Dewpt	 Wind 	HiWind	WindDir	Rain 	Barom
-----	----	-----	------	-----	-----	------	------	-------	-----	-----
00:00	49.9	49.9	49.9	50	32.0	3	7	248	0.00	29.839 
00:05	49.8	49.8	49.8	50	31.9	2	5	248	0.00	29.839 
00:10	49.6	49.6	49.6	50	31.7	3	5	270	0.00	29.839 
00:15	49.5	49.5	49.5	50	31.6	2	4	248	0.00	29.837 
00:20	49.4	49.4	49.4	50	31.5	2	6	248	0.00	29.837 
00:25	49.4	49.4	49.4	50	31.5	2	5	248	0.00	29.837 
00:30	49.4	49.4	49.4	50	31.5	2	7	270	0.00	29.840 
00:35	49.4	49.4	49.4	49	31.0	2	7	248	0.00	29.840 
00:40	49.4	49.4	49.4	49	31.0	2	7	248	0.00	29.840 
00:45	49.2	49.2	49.2	50	31.4	2	6	248	0.00	29.842 
00:50	49.2	49.2	49.2	50	31.4	3	11	248	0.00	29.842 
00:55	49.1	49.1	49.1	50	31.3	2	5	248	0.00	29.842 
01:00	48.9	48.9	48.9	50	31.1	1	5	248	0.00	29.848 
01:05	48.8	48.8	48.8	50	31.0	1	5	225	0.00	29.848 
01:10	48.8	48.8	48.8	50	31.0	2	5	248	0.00	29.848 
01:15	48.6	48.6	48.6	50	30.8	1	4	248	0.00	29.852 
01:20	48.5	48.5	48.5	50	30.7	1	5	248	0.00	29.852 
01:25	48.6	48.6	48.6	50	30.8	2	6	248	0.00	29.852 
01:30	48.5	48.5	48.5	50	30.7	1	4	248	0.00	29.851 
01:35	48.5	48.5	48.5	50	30.7	1	4	248	0.00	29.851 
01:40	48.3	48.3	48.3	50	30.5	1	6	248	0.00	29.851 
01:45	48.3	48.3	48.3	50	30.5	1	3	248	0.00	29.847 
01:50	48.3	48.3	48.3	49	30.0	2	5	248	0.00	29.847 
01:55	48.2	48.2	48.2	50	30.4	1	3	248	0.00	29.847 
02:00	48.0	48.0	48.0	50	30.3	1	4	248	0.00	29.847 
02:05	47.9	47.9	47.9	50	30.2	1	3	248	0.00	29.847 
02:10	47.9	47.9	47.9	50	30.2	1	5	248	0.00	29.847 
02:15	47.9	47.9	47.9	49	29.7	1	3	248	0.00	29.857 
02:20	48.0	48.0	48.0	49	29.8	1	5	248	0.00	29.857 
02:25	48.0	48.0	48.0	49	29.8	1	4	248	0.00	29.857 
02:30	47.9	47.9	47.9	49	29.7	1	7	270	0.00	29.861 
02:35	48.0	48.0	48.0	49	29.8	1	3	270	0.00	29.861 
02:40	48.0	48.0	48.0	49	29.8	1	3	270	0.00	29.861 
02:45	48.0	48.0	48.0	49	29.8	1	3	270	0.00	29.862 
02:50	47.9	47.9	47.9	49	29.7	1	3	248	0.00	29.862 
02:55	47.9	47.9	47.9	49	29.7	1	2	248	0.00	29.862 
03:00	47.7	47.7	47.7	50	30.0	1	4	248	0.00	29.861 
03:05	47.6	47.6	47.6	50	29.9	1	4	248	0.00	29.861 
03:10	47.4	47.4	47.4	50	29.7	1	3	248	0.00	29.861 
03:15	47.3	47.3	47.3	50	29.6	1	4	248	0.00	29.863 
03:20	47.4	47.4	47.4	50	29.7	1	5	225	0.00	29.863 
03:25	47.4	47.4	47.4	50	29.7	1	4	248	0.00	29.863 
03:30	47.3	47.3	47.3	50	29.6	1	5	248	0.00	29.863 
03:35	47.4	47.4	47.4	50	29.7	1	5	248	0.00	29.863 
03:40	47.4	47.4	47.4	50	29.7	1	3	248	0.00	29.863 
03:45	47.3	47.3	47.3	50	29.6	0	3	248	0.00	29.871 
03:50	46.8	46.8	46.8	51	29.6	0	1	248	0.00	29.871 
03:55	46.5	46.5	46.5	52	29.8	0	1	248	0.00	29.871 
04:00	46.1	46.1	46.1	53	29.9	0	2	248	0.00	29.867 
04:05	45.7	45.7	45.7	53	29.6	0	2	248	0.00	29.867 
04:10	45.7	45.7	45.7	54	30.0	0	2	248	0.00	29.867 
04:15	45.7	45.7	45.7	54	30.0	0	3	248	0.00	29.869 
04:20	45.5	45.5	45.5	53	29.4	0	2	248	0.00	29.869 
04:25	45.4	45.4	45.4	54	29.7	0	1	248	0.00	29.869 
04:30	45.2	45.2	45.2	54	29.6	0	1	248	0.00	29.870 
04:35	44.9	44.9	44.9	54	29.3	0	1	248	0.00	29.870 
04:40	44.6	44.6	44.6	55	29.4	0	1	248	0.00	29.870 
04:45	44.3	44.3	44.3	56	29.6	0	1	248	0.00	29.873 
04:50	43.9	43.9	43.9	56	29.2	0	1	248	0.00	29.873 
04:55	43.8	43.8	43.8	57	29.6	0	1	248	0.00	29.873 
05:00	43.5	43.5	43.5	57	29.3	0	1	248	0.00	29.874 
05:05	43.3	43.3	43.3	58	29.5	0	1	248	0.00	29.874 
05:10	43.1	43.1	43.1	58	29.3	0	1	248	0.00	29.874 
05:15	42.9	42.9	42.9	59	29.6	0	1	248	0.00	29.874 
05:20	42.8	42.8	42.8	59	29.5	0	2	248	0.00	29.874 
05:25	42.8	42.8	42.8	59	29.5	0	1	248	0.00	29.874 
05:30	42.8	42.8	42.8	59	29.5	0	1	248	0.00	29.872 
05:35	42.8	42.8	42.8	59	29.5	0	1	248	0.00	29.872 
05:40	42.8	42.8	42.8	59	29.5	0	1	248	0.00	29.872 
05:45	42.8	42.8	42.8	59	29.5	0	1	248	0.00	29.866 
05:50	42.6	42.6	42.6	59	29.3	0	1	248	0.00	29.866 
05:55	42.6	42.6	42.6	59	29.3	0	0	---	0.00	29.866 
06:00	42.3	42.3	42.3	60	29.4	0	0	---	0.00	29.854 
06:05	42.2	42.2	42.2	60	29.3	0	0	---	0.00	29.854 
06:10	41.9	41.9	41.9	60	29.0	0	0	---	0.00	29.854 
06:15	41.6	41.6	41.6	61	29.2	0	0	---	0.00	29.853 
06:20	41.5	41.5	41.5	61	29.1	0	1	248	0.00	29.853 
06:25	41.2	41.2	41.2	61	28.8	0	0	---	0.00	29.853 
06:30	40.9	40.9	40.9	62	28.9	0	1	248	0.00	29.851 
06:35	40.3	40.3	40.3	63	28.7	0	1	248	0.00	29.851 
06:40	40.2	40.2	40.2	65	29.4	0	1	248	0.00	29.851 
06:45	40.2	40.2	40.2	65	29.4	0	1	248	0.00	29.852 
06:50	40.5	40.5	40.5	65	29.7	0	2	248	0.00	29.852 
06:55	40.6	40.6	40.6	65	29.8	0	2	248	0.00	29.852 
07:00	40.9	40.9	40.9	64	29.7	0	2	248	0.00	29.850 
07:05	41.2	41.2	41.2	64	30.0	0	2	248	0.00	29.850 
07:10	41.3	41.3	41.3	64	30.1	0	3	248	0.00	29.850 
07:15	41.6	41.6	41.6	64	30.3	0	2	248	0.00	29.853 
07:20	41.8	41.8	41.8	63	30.1	0	2	248	0.00	29.853 
07:25	41.9	41.9	41.9	63	30.2	0	2	248	0.00	29.853 
07:30	42.1	42.1	42.1	64	30.8	0	3	248	0.00	29.855 
07:35	42.1	42.1	42.1	64	30.8	0	3	248	0.00	29.855 
07:40	42.1	42.1	42.1	64	30.8	0	2	248	0.00	29.855 
07:45	42.1	42.1	42.1	64	30.8	0	3	248	0.00	29.857 
07:50	42.2	42.2	42.2	64	30.9	0	2	248	0.00	29.857 
07:55	42.2	42.2	42.2	64	30.9	1	3	248	0.00	29.857 
08:00	42.5	42.5	42.5	64	31.2	1	4	248	0.00	29.856 
08:05	42.6	42.6	42.6	64	31.3	0	2	248	0.00	29.856 
08:10	42.8	42.8	42.8	64	31.5	0	1	248	0.00	29.856 
08:15	42.9	42.9	42.9	64	31.6	1	2	248	0.00	29.852 
08:20	43.3	43.3	43.3	64	32.0	1	4	248	0.00	29.852 
08:25	43.8	43.8	43.8	63	32.0	1	4	248	0.00	29.852 
08:30	44.2	44.2	44.2	62	32.0	1	5	248	0.00	29.850 
08:35	44.8	44.8	44.8	62	32.6	1	5	248	0.00	29.850 
08:40	45.4	45.4	45.4	61	32.7	1	5	248	0.00	29.850 
08:45	45.8	45.8	45.8	61	33.1	1	5	248	0.00	29.847 
08:50	46.2	46.2	46.2	61	33.5	1	4	248	0.00	29.847 
08:55	46.7	46.7	46.7	60	33.6	1	3	248	0.00	29.847 
09:00	47.1	47.1	47.1	60	33.9	1	6	225	0.00	29.846 
09:05	47.6	47.6	47.6	60	34.4	1	3	248	0.00	29.846 
09:10	48.0	48.0	48.0	59	34.4	1	6	248	0.00	29.846 
09:15	48.6	48.6	48.6	58	34.5	1	4	248	0.00	29.842 
09:20	49.2	49.2	49.2	57	34.6	2	7	248	0.00	29.842 
09:25	49.9	49.9	49.9	56	34.8	2	6	248	0.00	29.842 
09:30	50.5	50.5	50.5	55	34.9	2	6	248	0.00	29.842 
09:35	51.1	51.1	51.1	53	34.6	2	7	248	0.00	29.842 
09:40	51.9	51.9	51.9	52	34.8	2	6	248	0.00	29.842 
09:45	52.5	52.5	52.5	51	34.9	2	6	248	0.00	29.834 
09:50	52.9	52.9	52.9	49	34.3	2	9	270	0.00	29.834 
09:55	53.5	53.5	53.5	49	34.8	2	5	248	0.00	29.834 
10:00	53.9	53.9	53.9	48	34.7	2	5	270	0.00	29.833 
10:05	54.4	54.4	54.4	47	34.6	2	6	248	0.00	29.833 
10:10	54.8	54.8	54.8	47	35.0	2	6	248	0.00	29.833 
10:15	55.3	55.3	55.3	46	34.9	2	6	248	0.00	29.831 
10:20	55.7	55.7	55.7	45	34.7	2	5	248	0.00	29.831 
10:25	56.3	56.3	56.3	43	34.1	2	9	248	0.00	29.831 
10:30	56.7	56.7	56.7	42	33.9	3	10	270	0.00	29.828 
10:35	57.3	57.3	57.3	42	34.4	2	6	248	0.00	29.828 
10:40	57.8	57.8	57.8	40	33.6	3	10	248	0.00	29.828 
10:45	58.3	58.3	58.3	40	34.1	2	7	248	0.00	29.827 
10:50	58.7	58.7	58.7	39	33.8	2	7	248	0.00	29.827 
10:55	59.3	59.3	59.3	38	33.7	3	12	248	0.00	29.827 
11:00	59.6	59.6	59.6	36	32.6	4	12	248	0.00	29.824 
11:05	59.9	59.9	59.9	36	32.9	5	11	225	0.00	29.824 
11:10	60.2	60.2	60.2	35	32.4	3	9	248	0.00	29.824 
11:15	60.5	60.5	60.5	36	33.4	3	7	248	0.00	29.824 
11:20	60.9	60.9	60.9	35	33.1	3	10	248	0.00	29.824 
11:25	61.2	61.2	61.2	34	32.6	4	11	248	0.00	29.824 
11:30	61.3	61.3	61.3	33	32.0	5	13	248	0.00	29.828 
11:35	61.8	61.8	61.8	33	32.4	4	11	248	0.00	29.828 
11:40	62.0	62.0	62.0	32	31.8	4	9	248	0.00	29.828 
11:45	62.4	62.4	62.4	33	32.9	3	9	248	0.00	29.822 
11:50	62.7	62.7	62.7	31	31.6	5	10	248	0.00	29.822 
11:55	62.7	62.7	62.7	30	30.8	4	11	248	0.00	29.822 
12:00	62.9	62.9	62.9	29	30.2	4	11	248	0.00	29.814 
12:05	63.1	63.1	63.1	30	31.2	3	11	248	0.00	29.814 
12:10	63.1	63.1	63.1	28	29.5	5	11	248	0.00	29.814 
12:15	62.9	62.9	62.9	29	30.2	5	12	270	0.00	29.807 
12:20	63.2	63.2	63.2	31	32.1	3	9	248	0.00	29.807 
12:25	63.2	63.2	63.2	30	31.3	5	12	248	0.00	29.807 
12:30	63.2	63.2	63.2	30	31.3	4	12	248	0.00	29.806 
12:35	63.4	63.4	63.4	31	32.2	4	9	270	0.00	29.806 
12:40	63.7	63.7	63.7	31	32.5	4	7	270	0.00	29.806 
12:45	63.7	63.7	63.7	29	30.8	4	9	270	0.00	29.807 
12:50	63.7	63.7	63.7	29	30.8	5	9	270	0.00	29.807 
12:55	63.5	63.5	63.5	30	31.5	4	11	248	0.00	29.807 
13:00	63.5	63.5	63.5	29	30.7	5	9	270	0.00	29.800 
13:05	63.5	63.5	63.5	30	31.5	4	7	248	0.00	29.800 
13:10	63.7	63.7	63.7	31	32.5	3	7	270	0.00	29.800 
13:15	63.9	63.9	63.9	32	33.5	3	7	270	0.00	29.794 
13:20	64.0	64.0	64.0	31	32.8	3	13	270	0.00	29.794 
13:25	63.7	63.7	63.7	31	32.5	4	10	248	0.00	29.794 
13:30	63.4	63.4	63.4	32	33.0	4	10	248	0.00	29.794 
13:35	63.9	63.9	63.9	30	31.9	3	7	270	0.00	29.794 
13:40	64.0	64.0	64.0	29	31.1	4	8	270	0.00	29.794 
13:45	63.9	63.9	63.9	31	32.7	4	6	270	0.00	29.791 
13:50	64.2	64.2	64.2	31	32.9	3	7	270	0.00	29.791 
13:55	64.2	64.2	64.2	29	31.3	4	10	248	0.00	29.791 
14:00	64.0	64.0	64.0	30	31.9	4	10	270	0.00	29.791 
14:05	64.0	64.0	64.0	30	31.9	3	7	248	0.00	29.791 
14:10	64.2	64.2	64.2	31	32.9	3	9	270	0.00	29.791 
14:15	64.0	64.0	64.0	31	32.8	4	12	270	0.00	29.792 
14:20	64.2	64.2	64.2	33	34.5	2	6	248	0.00	29.792 
14:25	64.3	64.3	64.3	31	33.0	3	7	248	0.00	29.792 
14:30	64.3	64.3	64.3	31	33.0	3	8	270	0.00	29.790 
14:35	64.3	64.3	64.3	30	32.2	4	9	248	0.00	29.790 
14:40	64.5	64.5	64.5	30	32.4	3	5	248	0.00	29.790 
14:45	64.7	64.7	64.7	30	32.5	3	5	248	0.00	29.786 
14:50	64.7	64.7	64.7	29	31.7	4	6	248	0.00	29.786 
14:55	64.7	64.7	64.7	30	32.5	3	5	248	0.00	29.786 
15:00	64.7	64.7	64.7	28	30.8	4	6	270	0.00	29.791 
15:05	64.5	64.5	64.5	28	30.7	4	9	270	0.00	29.791 
15:10	64.5	64.5	64.5	28	30.7	5	8	270	0.00	29.791 
15:15	64.7	64.7	64.7	28	30.8	4	7	270	0.00	29.795 
15:20	65.0	65.0	65.0	28	31.1	3	7	270	0.00	29.795 
15:25	65.2	65.2	65.2	28	31.3	3	7	248	0.00	29.795 
15:30	65.2	65.2	65.2	28	31.3	3	7	248	0.00	29.794 
15:35	65.2	65.2	65.2	28	31.3	3	7	270	0.00	29.794 
15:40	65.2	65.2	65.2	29	32.1	3	6	270	0.00	29.794 
15:45	65.0	65.0	65.0	28	31.1	2	5	270	0.00	29.792 
15:50	65.0	65.0	65.0	28	31.1	3	6	292	0.00	29.792 
15:55	64.7	64.7	64.7	28	30.8	4	8	270	0.00	29.792 
16:00	64.7	64.7	64.7	28	30.8	2	5	248	0.00	29.793 
16:05	64.8	64.8	64.8	28	30.9	3	6	248	0.00	29.793 
16:10	64.7	64.7	64.7	29	31.7	2	6	270	0.00	29.793 
16:15	64.5	64.5	64.5	29	31.5	3	5	248	0.00	29.798 
16:20	64.5	64.5	64.5	29	31.5	2	5	270	0.00	29.798 
16:25	64.5	64.5	64.5	30	32.4	2	4	248	0.00	29.798 
16:30	64.5	64.5	64.5	29	31.5	3	5	270	0.00	29.802 
16:35	64.5	64.5	64.5	30	32.4	2	7	248	0.00	29.802 
16:40	64.3	64.3	64.3	30	32.2	2	5	248	0.00	29.802 
16:45	64.3	64.3	64.3	30	32.2	2	6	270	0.00	29.802 
16:50	64.3	64.3	64.3	31	33.0	1	3	270	0.00	29.802 
16:55	64.3	64.3	64.3	31	33.0	1	4	270	0.00	29.802 
17:00	64.2	64.2	64.2	31	32.9	2	4	248	0.00	29.810 
17:05	64.0	64.0	64.0	32	33.5	1	3	248	0.00	29.810 
17:10	63.9	63.9	63.9	31	32.7	1	4	248	0.00	29.810 
17:15	63.7	63.7	63.7	31	32.5	1	4	248	0.00	29.812 
17:20	63.5	63.5	63.5	31	32.3	1	3	248	0.00	29.812 
17:25	63.5	63.5	63.5	32	33.1	1	3	248	0.00	29.812 
17:30	63.2	63.2	63.2	32	32.9	0	2	248	0.00	29.816 
17:35	62.9	62.9	62.9	31	31.8	0	1	248	0.00	29.816 
17:40	62.6	62.6	62.6	30	30.7	1	4	270	0.00	29.816 
17:45	62.4	62.4	62.4	30	30.6	1	3	270	0.00	29.826 
17:50	62.1	62.1	62.1	33	32.7	0	2	270	0.00	29.826 
17:55	61.8	61.8	61.8	35	33.9	0	1	270	0.00	29.826 
18:00	61.3	61.3	61.3	37	34.8	0	1	270	0.00	29.835 
18:05	60.9	60.9	60.9	38	35.1	0	2	270	0.00	29.835 
18:10	60.5	60.5	60.5	39	35.4	0	2	270	0.00	29.835 
18:15	60.2	60.2	60.2	39	35.2	0	2	270	0.00	29.851 
18:20	59.8	59.8	59.8	40	35.4	0	1	270	0.00	29.851 
18:25	59.5	59.5	59.5	41	35.8	0	1	270	0.00	29.851 
18:30	59.2	59.2	59.2	41	35.5	0	2	270	0.00	29.860 
18:35	58.9	58.9	58.9	42	35.9	0	2	270	0.00	29.860 
18:40	58.7	58.7	58.7	42	35.7	1	4	270	0.00	29.860 
18:45	58.4	58.4	58.4	43	36.0	0	2	270	0.00	29.864 
18:50	58.1	58.1	58.1	43	35.7	0	2	270	0.00	29.864 
18:55	57.8	57.8	57.8	44	36.0	0	2	270	0.00	29.864 
19:00	57.6	57.6	57.6	44	35.8	0	2	270	0.00	29.873 
19:05	57.3	57.3	57.3	45	36.1	0	1	270	0.00	29.873 
19:10	57.0	57.0	57.0	45	35.9	0	1	270	0.00	29.873 
19:15	56.6	56.6	56.6	46	36.1	0	1	270	0.00	29.878 
19:20	56.3	56.3	56.3	46	35.8	0	1	270	0.00	29.878 
19:25	56.0	56.0	56.0	46	35.5	0	1	270	0.00	29.878 
19:30	55.7	55.7	55.7	47	35.8	0	1	270	0.00	29.882 
19:35	55.6	55.6	55.6	47	35.7	0	1	270	0.00	29.882 
19:40	55.1	55.1	55.1	48	35.8	0	0	---	0.00	29.882 
19:45	54.5	54.5	54.5	49	35.7	0	0	---	0.00	29.887 
19:50	53.9	53.9	53.9	50	35.7	0	0	---	0.00	29.887 
19:55	53.3	53.3	53.3	51	35.6	0	0	---	0.00	29.887 
20:00	52.8	52.8	52.8	52	35.7	0	0	---	0.00	29.894 
20:05	52.2	52.2	52.2	53	35.6	0	0	---	0.00	29.894 
20:10	51.9	51.9	51.9	54	35.8	0	0	---	0.00	29.894 
20:15	51.7	51.7	51.7	54	35.6	0	0	---	0.00	29.898 
20:20	51.7	51.7	51.7	55	36.1	0	0	---	0.00	29.898 
20:25	51.4	51.4	51.4	55	35.8	0	0	---	0.00	29.898 
20:30	51.3	51.3	51.3	56	36.1	0	0	---	0.00	29.899 
20:35	51.1	51.1	51.1	56	36.0	0	0	---	0.00	29.899 
20:40	51.1	51.1	51.1	56	36.0	0	1	270	0.00	29.899 
20:45	51.1	51.1	51.1	56	36.0	0	0	---	0.00	29.907 
20:50	51.1	51.1	51.1	56	36.0	0	0	---	0.00	29.907 
20:55	51.0	51.0	51.0	57	36.3	0	0	---	0.00	29.907 
21:00	50.8	50.8	50.8	57	36.1	0	1	270	0.00	29.912 
21:05	50.5	50.5	50.5	57	35.8	0	0	---	0.00	29.912 
21:10	50.1	50.1	50.1	58	35.9	0	0	---	0.00	29.912 
21:15	49.8	49.8	49.8	59	36.1	0	1	270	0.00	29.907 
21:20	49.8	49.8	49.8	58	35.6	0	1	270	0.00	29.907 
21:25	49.6	49.6	49.6	58	35.4	0	0	---	0.00	29.907 
21:30	49.5	49.5	49.5	58	35.3	0	0	---	0.00	29.908 
21:35	49.4	49.4	49.4	58	35.2	0	0	---	0.00	29.908 
21:40	48.9	48.9	48.9	59	35.2	0	0	---	0.00	29.908 
21:45	48.3	48.3	48.3	59	34.6	0	0	---	0.00	29.912 
21:50	47.7	47.7	47.7	60	34.5	0	0	---	0.00	29.912 
21:55	47.0	47.0	47.0	61	34.3	0	0	---	0.00	29.912 
22:00	46.4	46.4	46.4	62	34.1	0	0	---	0.00	29.919 
22:05	45.8	45.8	45.8	63	33.9	0	0	---	0.00	29.919 
22:10	45.2	45.2	45.2	64	33.8	0	0	---	0.00	29.919 
22:15	45.2	45.2	45.2	64	33.8	0	0	---	0.00	29.921 
22:20	45.2	45.2	45.2	64	33.8	0	0	---	0.00	29.921 
22:25	45.4	45.4	45.4	63	33.6	0	0	---	0.00	29.921 
22:30	45.2	45.2	45.2	63	33.4	0	0	---	0.00	29.925 
22:35	45.4	45.4	45.4	63	33.6	0	0	---	0.00	29.925 
22:40	45.2	45.2	45.2	62	33.0	0	0	---	0.00	29.925 
22:45	45.1	45.1	45.1	62	32.9	0	0	---	0.00	29.928 
22:50	44.8	44.8	44.8	63	33.0	0	0	---	0.00	29.928 
22:55	44.5	44.5	44.5	63	32.7	0	0	---	0.00	29.928 
23:00	44.1	44.1	44.1	63	32.3	0	0	---	0.00	29.938 
23:05	43.9	43.9	43.9	64	32.5	0	0	---	0.00	29.938 
23:10	43.8	43.8	43.8	64	32.4	0	0	---	0.00	29.938 
23:15	43.6	43.6	43.6	64	32.2	0	0	---	0.00	29.936 
23:20	43.2	43.2	43.2	64	31.9	0	0	---	0.00	29.936 
23:25	42.8	42.8	42.8	65	31.9	0	0	---	0.00	29.936 
23:30	42.2	42.2	42.2	65	31.3	0	0	---	0.00	29.940 
23:35	41.6	41.6	41.6	66	31.1	0	0	---	0.00	29.940 
23:40	41.2	41.2	41.2	67	31.1	0	0	---	0.00	29.940 
23:45	40.9	40.9	40.9	68	31.2	0	0	---	0.00	29.944 
23:50	40.6	40.6	40.6	68	30.9	0	0	---	0.00	29.944 
23:55	40.6	40.6	40.6	68	30.9	0	0	---	0.00	29.944 

CoCoRaHS
IN-AL-39
A2 Web Hosting
Creative Commons License
GoDaddy
search engine by freefind advanced

loaded 2018-11-13 17:34:17 • last modified 2010-11-18 10:43:29
Privacy PolicyDisclaimer
• wx.awcolley.com is powered by PmWiki v.2002016 •
• all content (unless otherwise noted) © 2018 A W Colley